^^
Saratoga-Weather Station Historical Data
Daily Summary for September 19, 2021 Units:  Both    English   Metric
Daily Weekly Monthly Yearly Custom
  High: Low: Average:
Temperature: 61.5 °F /  16.4 °C 60.4 °F /  15.8 °C 61.2 °F /  16.2 °C
Dew Point: 58.8 °F /  14.9 °C 58.5 °F /  14.7 °C 58.6 °F /  14.8 °C
Humidity: 93% 91% 92%
Wind Speed: 4.9mph /  7.9km/h - 1.9mph /  3km/h
Wind Gust: 6mph /  9.7km/h - -
Wind- - WNW
Pressure: 30 in /  1016.3 hPa 30 in /  1015.9 hPa -
Precipitation: 0 in /  0.0 mm    
Historical Graphs
 
 
Tabular Data for September 19, 2021
Time Temperature Dew Point Pressure Wind Wind Speed Wind Gust Humidity Rainfall Rate (Hourly) solar
00:02 61.5 °F /  16.4 °C 58.8 °F /  14.9 °C 30in /  1016.3hPa NW 2mph /  3.2km/h 4mph /  6.4km/h 91% 0in /  0.0mm 0 W/m2
00:07 61.5 °F /  16.4 °C 58.8 °F /  14.9 °C 30in /  1016.3hPa West 4mph /  6.4km/h 4mph /  6.4km/h 91% 0in /  0.0mm 0 W/m2
00:12 61.5 °F /  16.4 °C 58.8 °F /  14.9 °C 30in /  1016.3hPa West 0.9mph /  1.4km/h 3mph /  4.8km/h 91% 0in /  0.0mm 0 W/m2
00:17 61.3 °F /  16.3 °C 58.6 °F /  14.8 °C 30in /  1016.3hPa West 2mph /  3.2km/h 4mph /  6.4km/h 91% 0in /  0.0mm 0 W/m2
00:22 61.3 °F /  16.3 °C 58.6 °F /  14.8 °C 30in /  1016.3hPa NW 2.9mph /  4.7km/h 5mph /  8km/h 91% 0in /  0.0mm 0 W/m2
00:27 61.3 °F /  16.3 °C 58.6 °F /  14.8 °C 30in /  1016.3hPa West 2.9mph /  4.7km/h 4mph /  6.4km/h 91% 0in /  0.0mm 0 W/m2
00:32 61.3 °F /  16.3 °C 58.6 °F /  14.8 °C 30in /  1016.3hPa WNW 2mph /  3.2km/h 6mph /  9.7km/h 91% 0in /  0.0mm 0 W/m2
00:38 61.3 °F /  16.3 °C 58.6 °F /  14.8 °C 30in /  1016.3hPa NNW 2mph /  3.2km/h 3mph /  4.8km/h 91% 0in /  0.0mm 0 W/m2
00:43 61.3 °F /  16.3 °C 58.6 °F /  14.8 °C 30in /  1016.3hPa SW 2mph /  3.2km/h 6mph /  9.7km/h 91% 0in /  0.0mm 0 W/m2
00:48 61.3 °F /  16.3 °C 58.6 °F /  14.8 °C 30in /  1016.3hPa WNW 0.9mph /  1.4km/h 3mph /  4.8km/h 91% 0in /  0.0mm 0 W/m2
00:53 61.3 °F /  16.3 °C 58.6 °F /  14.8 °C 30in /  1016.3hPa WNW 2mph /  3.2km/h 6mph /  9.7km/h 91% 0in /  0.0mm 0 W/m2
00:58 61.3 °F /  16.3 °C 58.6 °F /  14.8 °C 30in /  1016.3hPa WNW 2mph /  3.2km/h 6mph /  9.7km/h 91% 0in /  0.0mm 0 W/m2
01:03 61.3 °F /  16.3 °C 58.6 °F /  14.8 °C 30in /  1016.3hPa NW 2mph /  3.2km/h 4mph /  6.4km/h 91% 0in /  0.0mm 0 W/m2
01:08 61.3 °F /  16.3 °C 58.6 °F /  14.8 °C 30in /  1016.3hPa WNW 0.9mph /  1.4km/h 3mph /  4.8km/h 91% 0in /  0.0mm 0 W/m2
01:13 61.3 °F /  16.3 °C 58.6 °F /  14.8 °C 30in /  1016.3hPa NW 2.9mph /  4.7km/h 3mph /  4.8km/h 91% 0in /  0.0mm 0 W/m2
01:18 61.3 °F /  16.3 °C 58.6 °F /  14.8 °C 30in /  1016.3hPa NW 0.9mph /  1.4km/h 3mph /  4.8km/h 91% 0in /  0.0mm 0 W/m2
01:23 61.3 °F /  16.3 °C 58.6 °F /  14.8 °C 30in /  1016.3hPa NNW 2mph /  3.2km/h 3mph /  4.8km/h 91% 0in /  0.0mm 0 W/m2
01:28 61.3 °F /  16.3 °C 58.6 °F /  14.8 °C 30in /  1016.3hPa NW 0.9mph /  1.4km/h 3mph /  4.8km/h 91% 0in /  0.0mm 0 W/m2
01:33 61.3 °F /  16.3 °C 58.6 °F /  14.8 °C 30in /  1016.3hPa NW 2.9mph /  4.7km/h 5mph /  8km/h 91% 0in /  0.0mm 0 W/m2
01:38 61.3 °F /  16.3 °C 58.6 °F /  14.8 °C 30in /  1016.3hPa WNW 4.9mph /  7.9km/h 5mph /  8km/h 91% 0in /  0.0mm 0 W/m2
01:43 61.2 °F /  16.2 °C 58.8 °F /  14.9 °C 30in /  1016.3hPa WNW 2.9mph /  4.7km/h 4mph /  6.4km/h 92% 0in /  0.0mm 0 W/m2
01:48 61.2 °F /  16.2 °C 58.8 °F /  14.9 °C 30in /  1016.3hPa Calm   2mph /  3.2km/h 92% 0in /  0.0mm 0 W/m2
01:53 61 °F /  16.1 °C 58.6 °F /  14.8 °C 30in /  1016.3hPa WSW 0.9mph /  1.4km/h 3mph /  4.8km/h 92% 0in /  0.0mm 0 W/m2
01:58 60.8 °F /  16 °C 58.5 °F /  14.7 °C 30in /  1016.3hPa SSW 0.9mph /  1.4km/h 2mph /  3.2km/h 92% 0in /  0.0mm 0 W/m2
02:03 60.6 °F /  15.9 °C 58.6 °F /  14.8 °C 30in /  1016.3hPa Calm   1mph /  1.6km/h 93% 0in /  0.0mm 0 W/m2
02:08 60.6 °F /  15.9 °C 58.6 °F /  14.8 °C 30in /  1016.3hPa West 2.9mph /  4.7km/h 4mph /  6.4km/h 93% 0in /  0.0mm 0 W/m2
02:13 60.6 °F /  15.9 °C 58.6 °F /  14.8 °C 30in /  1015.9hPa Calm   1mph /  1.6km/h 93% 0in /  0.0mm 0 W/m2
02:18 60.6 °F /  15.9 °C 58.6 °F /  14.8 °C 30in /  1015.9hPa NW 4mph /  6.4km/h 4mph /  6.4km/h 93% 0in /  0.0mm 0 W/m2
02:23 60.4 °F /  15.8 °C 58.5 °F /  14.7 °C 30in /  1015.9hPa Calm   3mph /  4.8km/h 93% 0in /  0.0mm 0 W/m2
02:28 60.4 °F /  15.8 °C 58.5 °F /  14.7 °C 30in /  1015.9hPa WNW 2mph /  3.2km/h 4mph /  6.4km/h 93% 0in /  0.0mm 0 W/m2
02:33 60.4 °F /  15.8 °C 58.5 °F /  14.7 °C 30in /  1015.9hPa NW 0.9mph /  1.4km/h 2mph /  3.2km/h 93% 0in /  0.0mm 0 W/m2
Juneau County Weather
Compliments of Weather Underground - 2 mb